createdAt,value
2018-02-24T00:00:31.966Z,14.90
2018-02-24T00:01:32.061Z,14.70
2018-02-24T00:02:31.902Z,15.00
2018-02-24T00:03:31.955Z,14.30
2018-02-24T00:04:31.836Z,14.30
2018-02-24T00:05:31.969Z,14.60
2018-02-24T00:06:31.769Z,13.60
2018-02-24T00:07:31.892Z,14.80
2018-02-24T00:08:31.710Z,15.30
2018-02-24T00:09:31.790Z,14.10
2018-02-24T00:10:31.641Z,14.10
2018-02-24T00:11:31.747Z,14.60
2018-02-24T00:12:31.577Z,14.30
2018-02-24T00:13:31.722Z,14.30
2018-02-24T00:14:31.516Z,14.50
2018-02-24T00:15:31.629Z,14.70
2018-02-24T00:16:31.442Z,14.30
2018-02-24T00:17:31.583Z,15.10
2018-02-24T00:18:31.393Z,14.50
2018-02-24T00:19:31.506Z,13.90
2018-02-24T00:20:31.345Z,14.10
2018-02-24T00:21:31.364Z,14.50
2018-02-24T00:22:31.293Z,13.90
2018-02-24T00:23:31.380Z,14.70
2018-02-24T00:24:31.183Z,15.10
2018-02-24T00:25:31.279Z,15.00
2018-02-24T00:26:31.128Z,14.50
2018-02-24T00:27:31.208Z,14.90
2018-02-24T00:28:31.057Z,15.20
2018-02-24T00:29:31.106Z,14.70
2018-02-24T00:30:30.985Z,15.10
2018-02-24T00:31:31.128Z,14.80
2018-02-24T00:32:30.933Z,15.30
2018-02-24T00:33:31.036Z,14.50
2018-02-24T00:34:30.859Z,15.00
2018-02-24T00:35:30.958Z,14.80
2018-02-24T00:36:30.798Z,15.30
2018-02-24T00:37:30.859Z,15.00
2018-02-24T00:38:30.729Z,15.10
2018-02-24T00:39:30.872Z,15.60
2018-02-24T00:40:30.676Z,14.90
2018-02-24T00:41:30.784Z,14.50
2018-02-24T00:42:30.597Z,14.50
2018-02-24T00:43:30.694Z,15.80
2018-02-24T00:44:30.535Z,15.80
2018-02-24T00:45:30.603Z,15.40
2018-02-24T00:46:30.471Z,15.70
2018-02-24T00:47:30.625Z,15.30
2018-02-24T00:48:30.400Z,15.80
2018-02-24T00:49:30.545Z,14.90
2018-02-24T00:50:30.338Z,16.00
2018-02-24T00:51:30.446Z,15.90
2018-02-24T00:52:30.274Z,16.30
2018-02-24T00:53:30.348Z,15.90
2018-02-24T00:54:30.204Z,16.60
2018-02-24T00:55:30.385Z,16.40
2018-02-24T00:56:30.155Z,15.50
2018-02-24T00:57:30.342Z,15.60
2018-02-24T00:58:30.105Z,15.80
2018-02-24T00:59:30.185Z,15.90
2018-02-24T01:00:30.012Z,16.60
2018-02-24T01:01:30.104Z,16.00
2018-02-24T01:02:29.952Z,16.30
2018-02-24T01:03:30.116Z,16.90
2018-02-24T01:04:29.878Z,16.50
2018-02-24T01:05:30.031Z,16.80
2018-02-24T01:06:29.820Z,17.30
2018-02-24T01:07:29.944Z,17.10
2018-02-24T01:08:29.750Z,16.50
2018-02-24T01:09:29.853Z,17.00
2018-02-24T01:10:29.681Z,17.10
2018-02-24T01:11:29.757Z,16.10
2018-02-24T01:12:29.616Z,17.30
2018-02-24T01:13:29.773Z,17.70
2018-02-24T01:14:29.560Z,17.30
2018-02-24T01:15:29.716Z,17.30
2018-02-24T01:16:29.489Z,17.30
2018-02-24T01:17:29.607Z,18.20
2018-02-24T01:18:29.452Z,17.40
2018-02-24T01:19:29.536Z,17.30
2018-02-24T01:20:29.354Z,17.50
2018-02-24T01:21:29.432Z,18.30
2018-02-24T01:22:29.289Z,18.30
2018-02-24T01:23:29.339Z,17.30
2018-02-24T01:24:29.222Z,18.90
2018-02-24T01:25:29.249Z,17.90
2018-02-24T01:26:29.159Z,18.70
2018-02-24T01:27:29.160Z,18.30
2018-02-24T01:28:29.093Z,19.60
2018-02-24T01:29:29.177Z,18.80
2018-02-24T01:30:29.027Z,17.90
2018-02-24T01:31:29.086Z,19.00
2018-02-24T01:32:28.957Z,18.60
2018-02-24T01:33:29.001Z,19.00
2018-02-24T01:34:28.911Z,18.90
2018-02-24T01:35:28.908Z,18.20
2018-02-24T01:36:28.834Z,19.30
2018-02-24T01:37:28.926Z,19.20
2018-02-24T01:38:28.762Z,19.30
2018-02-24T01:39:28.832Z,19.10
2018-02-24T01:40:28.696Z,19.60
2018-02-24T01:41:28.744Z,18.50
2018-02-24T01:42:28.629Z,19.60
2018-02-24T01:43:28.689Z,20.50
2018-02-24T01:44:28.561Z,19.60
2018-02-24T01:45:28.576Z,19.30
2018-02-24T01:46:28.499Z,19.50
2018-02-24T01:47:28.583Z,20.30
2018-02-24T01:48:28.436Z,20.50
2018-02-24T01:49:28.527Z,20.20
2018-02-24T01:50:28.372Z,19.50
2018-02-24T01:51:28.405Z,21.00
2018-02-24T01:52:28.300Z,20.20
2018-02-24T01:53:28.320Z,20.60
2018-02-24T01:54:28.228Z,20.70
2018-02-24T01:55:28.331Z,20.70
2018-02-24T01:56:28.176Z,21.30
2018-02-24T01:57:28.241Z,20.50
2018-02-24T01:58:28.104Z,20.90
2018-02-24T01:59:28.153Z,21.20
2018-02-24T02:00:28.044Z,20.90
2018-02-24T02:01:28.068Z,21.20
2018-02-24T02:02:27.969Z,21.10
2018-02-24T02:03:28.080Z,21.50
2018-02-24T02:04:27.904Z,22.10
2018-02-24T02:05:28.016Z,22.50
2018-02-24T02:06:27.847Z,22.30
2018-02-24T02:07:27.906Z,22.20
2018-02-24T02:08:27.772Z,21.80
2018-02-24T02:09:27.810Z,22.20
2018-02-24T02:10:27.710Z,21.20
2018-02-24T02:11:27.825Z,22.10
2018-02-24T02:12:27.644Z,22.20
2018-02-24T02:13:27.737Z,22.10
2018-02-24T02:14:27.591Z,22.20
2018-02-24T02:15:27.657Z,22.40
2018-02-24T02:16:27.510Z,21.60
2018-02-24T02:17:27.563Z,22.60
2018-02-24T02:18:27.444Z,22.60
2018-02-24T02:19:27.470Z,23.60
2018-02-24T02:20:27.375Z,22.40
2018-02-24T02:21:27.484Z,22.20
2018-02-24T02:22:27.305Z,22.90
2018-02-24T02:23:27.400Z,23.30
2018-02-24T02:24:27.243Z,23.00
2018-02-24T02:25:27.302Z,22.60
2018-02-24T02:26:27.173Z,21.80
2018-02-24T02:27:27.226Z,22.70
2018-02-24T02:28:27.100Z,22.70
2018-02-24T02:29:27.234Z,23.20
2018-02-24T02:30:27.074Z,23.30
2018-02-24T02:31:27.142Z,22.80
2018-02-24T02:32:26.982Z,23.30
2018-02-24T02:33:27.061Z,23.30
2018-02-24T02:34:26.917Z,22.40
2018-02-24T02:35:26.975Z,23.30
2018-02-24T02:36:26.844Z,21.90
2018-02-24T02:37:26.984Z,23.50
2018-02-24T02:38:26.781Z,22.70
2018-02-24T02:39:26.895Z,23.80
2018-02-24T02:40:26.714Z,22.80
2018-02-24T02:41:26.808Z,23.00
2018-02-24T02:42:26.647Z,23.30
2018-02-24T02:43:26.728Z,23.10
2018-02-24T02:44:26.580Z,23.70
2018-02-24T02:45:26.633Z,23.40
2018-02-24T02:46:26.509Z,23.90
2018-02-24T02:47:26.653Z,23.00
2018-02-24T02:48:26.470Z,22.70
2018-02-24T02:49:26.557Z,23.10
2018-02-24T02:50:26.381Z,24.00
2018-02-24T02:51:26.366Z,23.10
2018-02-24T02:52:26.314Z,22.90
2018-02-24T02:53:26.374Z,23.60
2018-02-24T02:54:26.246Z,22.60
2018-02-24T02:55:26.394Z,24.20
2018-02-24T02:56:26.184Z,23.80
2018-02-24T02:57:26.306Z,24.30
2018-02-24T02:58:26.116Z,23.10
2018-02-24T02:59:26.228Z,23.00
2018-02-24T03:00:26.048Z,22.80
2018-02-24T03:01:26.128Z,23.30
2018-02-24T03:02:25.985Z,23.70
2018-02-24T03:03:26.147Z,23.20
2018-02-24T03:04:25.916Z,22.40
2018-02-24T03:05:26.060Z,23.50
2018-02-24T03:06:25.863Z,24.10
2018-02-24T03:07:25.985Z,23.70
2018-02-24T03:08:25.786Z,23.00
2018-02-24T03:09:25.881Z,23.30
2018-02-24T03:10:25.731Z,22.90
2018-02-24T03:11:25.791Z,22.90
2018-02-24T03:12:25.657Z,22.30
2018-02-24T03:13:25.800Z,24.40
2018-02-24T03:14:25.581Z,23.00
2018-02-24T03:15:25.714Z,22.40
2018-02-24T03:16:25.527Z,21.80
2018-02-24T03:17:25.618Z,22.80
2018-02-24T03:18:25.445Z,22.50
2018-02-24T03:19:25.536Z,23.40
2018-02-24T03:20:25.387Z,21.80
2018-02-24T03:21:25.570Z,22.80
2018-02-24T03:22:25.312Z,23.30
2018-02-24T03:23:25.484Z,22.30
2018-02-24T03:24:25.248Z,22.40
2018-02-24T03:25:25.376Z,22.80
2018-02-24T03:26:25.183Z,22.10
2018-02-24T03:27:25.286Z,22.10
2018-02-24T03:28:25.115Z,22.30
2018-02-24T03:29:25.214Z,22.60
2018-02-24T03:30:25.052Z,21.70
2018-02-24T03:31:25.236Z,22.50
2018-02-24T03:32:24.986Z,22.90
2018-02-24T03:33:25.125Z,21.90
2018-02-24T03:34:24.917Z,22.40
2018-02-24T03:35:25.047Z,22.70
2018-02-24T03:36:24.880Z,23.00
2018-02-24T03:37:24.946Z,22.60
2018-02-24T03:38:24.777Z,22.60
2018-02-24T03:39:24.960Z,22.40
2018-02-24T03:40:24.735Z,22.80
2018-02-24T03:41:24.772Z,23.10
2018-02-24T03:42:24.656Z,21.80
2018-02-24T03:43:24.681Z,21.20
2018-02-24T03:44:24.574Z,22.20
2018-02-24T03:45:24.594Z,22.50
2018-02-24T03:46:24.530Z,22.30
2018-02-24T03:47:24.503Z,22.20
2018-02-24T03:48:24.450Z,22.40
2018-02-24T03:49:24.517Z,22.70
2018-02-24T03:50:24.396Z,21.20
2018-02-24T03:51:24.428Z,21.20
2018-02-24T03:52:24.316Z,22.10
2018-02-24T03:53:24.346Z,22.60
2018-02-24T03:54:24.243Z,21.40
2018-02-24T03:55:24.253Z,21.60
2018-02-24T03:56:24.180Z,21.50
2018-02-24T03:57:24.276Z,21.40
2018-02-24T03:58:24.119Z,21.80
2018-02-24T03:59:24.176Z,21.10
2018-02-24T04:00:24.044Z,21.80
2018-02-24T04:01:24.088Z,21.80
2018-02-24T04:02:23.992Z,21.90
2018-02-24T04:03:24.001Z,21.90
2018-02-24T04:04:23.920Z,22.30
2018-02-24T04:05:24.016Z,21.30
2018-02-24T04:06:23.845Z,22.50
2018-02-24T04:07:23.927Z,21.20
2018-02-24T04:08:23.783Z,21.20
2018-02-24T04:09:23.836Z,21.70
2018-02-24T04:10:23.709Z,22.00
2018-02-24T04:11:23.754Z,20.60
2018-02-24T04:12:23.642Z,21.60
2018-02-24T04:13:23.678Z,21.90
2018-02-24T04:14:23.577Z,21.10
2018-02-24T04:15:23.670Z,21.60
2018-02-24T04:16:23.542Z,21.80
2018-02-24T04:17:23.585Z,22.40
2018-02-24T04:18:23.443Z,21.30
2018-02-24T04:19:23.499Z,20.40
2018-02-24T04:20:23.368Z,22.10
2018-02-24T04:21:23.407Z,21.60
2018-02-24T04:22:23.306Z,21.40
2018-02-24T04:23:23.426Z,21.20
2018-02-24T04:24:23.238Z,21.20
2018-02-24T04:25:23.340Z,22.10
2018-02-24T04:26:23.179Z,21.50
2018-02-24T04:27:23.261Z,21.40
2018-02-24T04:28:23.104Z,21.10
2018-02-24T04:29:23.165Z,21.00
2018-02-24T04:30:23.036Z,21.30
2018-02-24T04:31:23.110Z,21.00
2018-02-24T04:32:22.968Z,22.20
2018-02-24T04:33:23.092Z,21.80
2018-02-24T04:34:22.906Z,21.10
2018-02-24T04:35:22.992Z,21.60
2018-02-24T04:36:22.837Z,21.60
2018-02-24T04:37:22.911Z,21.80
2018-02-24T04:38:22.774Z,21.20
2018-02-24T04:39:22.819Z,22.00
2018-02-24T04:40:22.701Z,21.90
2018-02-24T04:41:22.736Z,22.20
2018-02-24T04:42:22.635Z,22.60
2018-02-24T04:43:22.757Z,21.80
2018-02-24T04:44:22.563Z,21.70
2018-02-24T04:45:22.654Z,21.30
2018-02-24T04:46:22.498Z,20.70
2018-02-24T04:47:22.565Z,22.20
2018-02-24T04:48:22.433Z,21.50
2018-02-24T04:49:22.492Z,21.10
2018-02-24T04:50:22.363Z,20.70
2018-02-24T04:51:22.496Z,21.90
2018-02-24T04:52:22.291Z,21.90
2018-02-24T04:53:22.420Z,20.90
2018-02-24T04:54:22.226Z,21.30
2018-02-24T04:55:22.314Z,21.50
2018-02-24T04:56:22.190Z,21.40
2018-02-24T04:57:22.223Z,20.60
2018-02-24T04:58:22.091Z,21.50
2018-02-24T04:59:22.132Z,21.70
2018-02-24T05:00:22.032Z,21.00
2018-02-24T05:01:22.151Z,21.40
2018-02-24T05:02:21.957Z,20.90
2018-02-24T05:03:22.063Z,22.20
2018-02-24T05:04:21.889Z,21.10
2018-02-24T05:05:21.975Z,21.60
2018-02-24T05:06:21.826Z,21.20
2018-02-24T05:07:21.886Z,21.90
2018-02-24T05:08:21.754Z,21.70
2018-02-24T05:09:21.902Z,21.30
2018-02-24T05:10:21.688Z,21.50
2018-02-24T05:11:21.813Z,21.40
2018-02-24T05:12:21.627Z,21.10
2018-02-24T05:13:21.727Z,21.90
2018-02-24T05:14:21.558Z,20.70
2018-02-24T05:15:21.633Z,20.60
2018-02-24T05:16:21.484Z,20.90
2018-02-24T05:17:21.552Z,21.40
2018-02-24T05:18:21.416Z,21.00
2018-02-24T05:19:21.557Z,21.40
2018-02-24T05:20:21.350Z,21.00
2018-02-24T05:21:21.473Z,21.30
2018-02-24T05:22:21.284Z,21.60
2018-02-24T05:23:21.387Z,21.70
2018-02-24T05:24:21.216Z,21.20
2018-02-24T05:25:21.295Z,21.40
2018-02-24T05:26:21.146Z,21.90
2018-02-24T05:27:21.309Z,21.10
2018-02-24T05:28:21.087Z,21.80
2018-02-24T05:29:21.220Z,21.00
2018-02-24T05:30:21.012Z,21.00
2018-02-24T05:31:21.135Z,21.50
2018-02-24T05:32:20.945Z,21.10
2018-02-24T05:33:21.043Z,21.20
2018-02-24T05:34:20.899Z,21.20
2018-02-24T05:35:20.954Z,22.50
2018-02-24T05:36:20.808Z,22.80
2018-02-24T05:37:20.969Z,21.90
2018-02-24T05:38:20.741Z,23.30
2018-02-24T05:39:20.881Z,29.10
2018-02-24T05:40:20.676Z,24.20
2018-02-24T05:41:20.799Z,23.30
2018-02-24T05:42:20.607Z,22.60
2018-02-24T05:44:54.244Z,21.60
2018-02-24T05:45:52.266Z,21.40
2018-02-24T05:47:45.435Z,22.70
2018-02-24T05:48:45.225Z,22.50
2018-02-24T05:50:38.395Z,21.30
2018-02-24T05:51:38.373Z,21.10
2018-02-24T05:52:38.140Z,21.50
2018-02-24T05:53:38.282Z,22.10
2018-02-24T05:54:38.073Z,20.80
2018-02-24T05:55:38.195Z,21.90
2018-02-24T05:56:38.007Z,21.20
2018-02-24T05:57:38.122Z,21.20
2018-02-24T05:58:37.938Z,20.70
2018-02-24T05:59:38.120Z,21.20
2018-02-24T06:00:37.872Z,21.40
2018-02-24T06:01:38.035Z,21.70
2018-02-24T06:02:37.801Z,21.00
2018-02-24T06:03:37.840Z,20.50
2018-02-24T06:04:37.735Z,21.60
2018-02-24T06:05:37.758Z,20.70
2018-02-24T06:06:37.665Z,20.50
2018-02-24T06:07:37.709Z,20.30
2018-02-24T06:08:37.605Z,21.90
2018-02-24T06:09:37.682Z,20.70
2018-02-24T06:10:37.531Z,21.50
2018-02-24T06:11:37.594Z,21.50
2018-02-24T06:12:37.469Z,22.00
2018-02-24T06:13:37.515Z,20.90
2018-02-24T06:14:37.396Z,21.80
2018-02-24T06:15:37.421Z,20.80
2018-02-24T06:16:37.329Z,20.60
2018-02-24T06:17:37.329Z,20.00
2018-02-24T06:18:37.283Z,21.60
2018-02-24T06:19:37.454Z,21.30
2018-02-24T06:20:37.204Z,20.90
2018-02-24T06:21:37.253Z,20.80
2018-02-24T06:22:37.130Z,21.00
2018-02-24T06:23:37.173Z,21.20
2018-02-24T06:24:37.060Z,21.00
2018-02-24T06:25:37.073Z,20.40
2018-02-24T06:26:36.998Z,21.40
2018-02-24T06:27:37.085Z,20.80
2018-02-24T06:28:36.928Z,20.90
2018-02-24T06:29:36.998Z,19.90
2018-02-24T06:30:36.859Z,22.10
2018-02-24T06:31:36.921Z,21.60
2018-02-24T06:32:36.791Z,21.20
2018-02-24T06:33:36.823Z,20.10
2018-02-24T06:34:36.733Z,21.50
2018-02-24T06:35:36.733Z,20.60
2018-02-24T06:36:36.664Z,21.00
2018-02-24T06:37:36.748Z,20.70
2018-02-24T06:38:36.588Z,20.90
2018-02-24T06:39:36.675Z,20.30
2018-02-24T06:40:36.532Z,20.60
2018-02-24T06:41:36.569Z,21.30
2018-02-24T06:42:36.454Z,20.70
2018-02-24T06:43:36.481Z,20.90
2018-02-24T06:44:36.385Z,21.10
2018-02-24T06:45:36.498Z,19.80
2018-02-24T06:46:36.319Z,21.90
2018-02-24T06:47:36.406Z,21.60
2018-02-24T06:48:36.252Z,21.10
2018-02-24T06:49:36.319Z,20.30
2018-02-24T06:50:36.183Z,21.50
2018-02-24T06:51:36.231Z,21.70
2018-02-24T06:52:36.118Z,20.40
2018-02-24T06:53:36.139Z,20.90
2018-02-24T06:54:36.053Z,21.00
2018-02-24T06:55:36.150Z,21.00
2018-02-24T06:56:35.999Z,21.40
2018-02-24T06:57:36.068Z,21.40
2018-02-24T06:58:35.915Z,21.40
2018-02-24T06:59:35.979Z,20.20
2018-02-24T07:00:35.854Z,20.40
2018-02-24T07:01:35.891Z,19.90
2018-02-24T07:02:35.779Z,21.70
2018-02-24T07:03:35.902Z,20.30
2018-02-24T07:04:35.711Z,20.80
2018-02-24T07:05:35.817Z,20.80
2018-02-24T07:06:35.677Z,21.00
2018-02-24T07:07:35.655Z,22.00
2018-02-24T07:08:35.594Z,20.10
2018-02-24T07:09:35.670Z,20.60
2018-02-24T07:10:35.516Z,21.20
2018-02-24T07:11:35.497Z,22.20
2018-02-24T07:12:35.452Z,21.20
2018-02-24T07:13:35.407Z,20.70
2018-02-24T07:14:35.482Z,23.10
2018-02-24T07:15:35.351Z,21.50
2018-02-24T07:16:35.406Z,21.30
2018-02-24T07:17:35.353Z,21.20
2018-02-24T07:18:35.311Z,22.70
2018-02-24T07:19:35.227Z,21.80
2018-02-24T07:20:35.305Z,21.60
2018-02-24T07:21:35.143Z,22.00
2018-02-24T07:22:35.256Z,22.40
2018-02-24T07:23:35.106Z,22.70
2018-02-24T07:24:35.164Z,21.40
2018-02-24T07:25:35.005Z,22.60
2018-02-24T07:26:35.046Z,22.30
2018-02-24T07:27:34.937Z,21.80
2018-02-24T07:28:34.990Z,23.10
2018-02-24T07:29:34.873Z,24.60
2018-02-24T07:30:34.882Z,22.00
2018-02-24T07:31:34.850Z,22.60
2018-02-24T07:32:34.890Z,21.90
2018-02-24T07:33:34.734Z,23.10
2018-02-24T07:34:34.789Z,22.80
2018-02-24T07:35:34.669Z,22.00
2018-02-24T07:36:34.732Z,21.60
2018-02-24T07:37:34.614Z,29.20
2018-02-24T07:38:34.616Z,23.20
2018-02-24T07:39:34.553Z,24.80
2018-02-24T07:40:34.528Z,22.70
2018-02-24T07:41:34.510Z,22.40
2018-02-24T07:42:34.540Z,25.00
2018-02-24T07:43:34.406Z,24.50
2018-02-24T07:44:34.453Z,21.40
2018-02-24T07:45:34.335Z,22.20
2018-02-24T07:46:34.361Z,26.70
2018-02-24T07:47:34.310Z,26.10
2018-02-24T07:48:34.325Z,23.00
2018-02-24T07:49:34.214Z,31.70
2018-02-24T07:50:34.192Z,25.40
2018-02-24T07:51:34.140Z,25.20
2018-02-24T07:52:34.202Z,24.50
2018-02-24T07:53:34.096Z,23.60
2018-02-24T07:54:35.167Z,22.70
2018-02-24T07:55:34.023Z,23.10
2018-02-24T07:56:34.043Z,22.90
2018-02-24T07:57:33.964Z,23.50
2018-02-24T07:58:33.944Z,22.10
2018-02-24T07:59:33.871Z,27.80
2018-02-24T08:00:33.950Z,24.00
2018-02-24T08:01:33.812Z,22.40
2018-02-24T08:02:33.866Z,22.20
2018-02-24T08:03:33.738Z,22.90
2018-02-24T08:04:33.774Z,23.30
2018-02-24T08:05:33.667Z,25.00
2018-02-24T08:06:33.694Z,24.30
2018-02-24T08:07:33.709Z,25.90
2018-02-24T08:08:33.667Z,22.50
2018-02-24T08:09:33.591Z,22.10
2018-02-24T08:10:33.631Z,31.70
2018-02-24T08:11:33.492Z,22.50
2018-02-24T08:12:33.522Z,23.90
2018-02-24T08:13:33.403Z,23.40
2018-02-24T08:14:33.437Z,20.20
2018-02-24T08:15:33.335Z,24.40
2018-02-24T08:16:33.353Z,22.50
2018-02-24T08:17:33.292Z,21.30
2018-02-24T08:18:33.359Z,20.20
2018-02-24T08:19:33.201Z,20.50
2018-02-24T08:20:33.297Z,20.90
2018-02-24T08:21:33.156Z,20.40
2018-02-24T08:22:33.173Z,20.30
2018-02-24T08:23:33.077Z,20.70
2018-02-24T08:24:33.090Z,20.00
2018-02-24T08:25:33.063Z,19.50
2018-02-24T08:26:33.024Z,19.90
2018-02-24T08:27:32.939Z,19.60
2018-02-24T08:28:33.010Z,20.50
2018-02-24T08:29:32.883Z,19.90
2018-02-24T08:30:32.930Z,19.20
2018-02-24T08:31:32.862Z,19.60
2018-02-24T08:32:32.847Z,19.80
2018-02-24T08:33:32.746Z,19.80
2018-02-24T08:34:32.780Z,19.40
2018-02-24T08:35:32.673Z,19.50
2018-02-24T08:36:32.673Z,18.70
2018-02-24T08:37:32.647Z,19.30
2018-02-24T08:38:32.726Z,19.50
2018-02-24T08:39:32.542Z,19.20
2018-02-24T08:40:32.629Z,18.90
2018-02-24T08:41:32.479Z,18.90
2018-02-24T08:42:32.496Z,18.90
2018-02-24T08:43:32.402Z,19.30
2018-02-24T08:44:32.455Z,18.60
2018-02-24T08:45:32.357Z,18.70
2018-02-24T08:46:32.452Z,21.00
2018-02-24T08:47:32.272Z,19.10
2018-02-24T08:48:33.269Z,20.80
2018-02-24T08:49:32.274Z,20.70
2018-02-24T08:50:32.244Z,19.90
2018-02-24T08:51:32.259Z,20.30
2018-02-24T08:52:32.155Z,21.80
2018-02-24T08:53:32.100Z,20.60
2018-02-24T08:54:32.071Z,19.40
2018-02-24T08:55:32.028Z,19.40
2018-02-24T08:56:32.087Z,19.20
2018-02-24T08:57:32.038Z,19.80
2018-02-24T08:58:31.999Z,19.30
2018-02-24T08:59:31.960Z,18.80
2018-02-24T09:00:32.099Z,19.50
2018-02-24T09:01:31.842Z,21.00
2018-02-24T09:02:31.861Z,23.20
2018-02-24T09:03:31.762Z,19.30
2018-02-24T09:04:31.838Z,20.10
2018-02-24T09:05:31.694Z,19.40
2018-02-24T09:06:31.752Z,18.70
2018-02-24T09:07:31.623Z,20.30
2018-02-24T09:08:31.655Z,18.00
2018-02-24T09:09:31.572Z,18.00
2018-02-24T09:10:31.566Z,19.00
2018-02-24T09:11:31.504Z,19.40
2018-02-24T09:12:31.597Z,21.40
2018-02-24T09:13:31.436Z,21.50
2018-02-24T09:14:31.498Z,23.60
2018-02-24T09:15:31.364Z,19.00
2018-02-24T09:16:31.409Z,21.50
2018-02-24T09:17:31.314Z,21.90
2018-02-24T09:18:31.319Z,23.30
2018-02-24T09:19:31.239Z,19.20
2018-02-24T09:20:31.211Z,21.30
2018-02-24T09:21:31.235Z,26.00
2018-02-24T09:22:31.212Z,20.70
2018-02-24T09:23:31.153Z,20.10
2018-02-24T09:24:31.157Z,17.30
2018-02-24T09:25:31.214Z,17.00
2018-02-24T09:26:31.095Z,21.70
2018-02-24T09:27:31.137Z,16.40
2018-02-24T09:28:30.992Z,20.20
2018-02-24T09:29:31.017Z,16.90
2018-02-24T09:30:30.919Z,17.90
2018-02-24T09:31:30.996Z,16.80
2018-02-24T09:32:30.897Z,22.10
2018-02-24T09:33:30.919Z,16.40
2018-02-24T09:34:30.840Z,18.80
2018-02-24T09:35:30.879Z,19.10
2018-02-24T09:36:30.758Z,17.60
2018-02-24T09:37:30.839Z,15.70
2018-02-24T09:38:30.764Z,15.90
2018-02-24T09:39:30.697Z,18.30
2018-02-24T09:40:30.622Z,23.00
2018-02-24T09:41:30.684Z,19.00
2018-02-24T09:42:30.602Z,19.90
2018-02-24T09:43:30.698Z,14.80
2018-02-24T09:44:30.517Z,15.90
2018-02-24T09:45:30.624Z,16.80
2018-02-24T09:46:30.465Z,17.90
2018-02-24T09:47:30.644Z,17.60
2018-02-24T09:48:30.427Z,17.50
2018-02-24T09:49:30.405Z,17.50
2018-02-24T09:50:30.469Z,17.10
2018-02-24T09:51:30.522Z,18.30
2018-02-24T09:52:30.427Z,16.20
2018-02-24T09:53:30.447Z,15.50
2018-02-24T09:54:30.306Z,20.50
2018-02-24T09:55:30.252Z,18.70
2018-02-24T09:56:30.233Z,15.20
2018-02-24T09:57:30.365Z,15.30
2018-02-24T09:58:30.182Z,18.10
2018-02-24T09:59:30.195Z,18.20
2018-02-24T10:00:30.112Z,17.60
2018-02-24T10:01:30.262Z,15.70
2018-02-24T10:02:30.096Z,14.70
2018-02-24T10:03:30.095Z,16.10
2018-02-24T10:04:30.117Z,14.90
2018-02-24T10:05:30.134Z,14.30
2018-02-24T10:06:30.099Z,13.70
2018-02-24T10:07:30.079Z,13.20
2018-02-24T10:08:30.036Z,14.10
2018-02-24T10:09:30.078Z,14.00
2018-02-24T10:10:29.925Z,14.60
2018-02-24T10:11:29.999Z,13.80
2018-02-24T10:12:29.937Z,14.10
2018-02-24T10:13:30.059Z,13.80
2018-02-24T10:14:29.898Z,13.90
2018-02-24T10:15:29.982Z,13.70
2018-02-24T10:16:29.844Z,14.20
2018-02-24T10:17:29.923Z,14.10
2018-02-24T10:18:29.753Z,14.20
2018-02-24T10:19:29.862Z,15.00
2018-02-24T10:20:29.765Z,13.80
2018-02-24T10:21:29.843Z,12.90
2018-02-24T10:22:29.786Z,13.20
2018-02-24T10:23:29.767Z,12.70
2018-02-24T10:24:29.666Z,13.40
2018-02-24T10:25:29.788Z,13.60
2018-02-24T10:26:29.649Z,13.20
2018-02-24T10:27:29.686Z,13.00
2018-02-24T10:28:29.607Z,12.70
2018-02-24T10:29:29.693Z,13.00
2018-02-24T10:30:29.558Z,13.20
2018-02-24T10:31:29.590Z,17.80
2018-02-24T10:32:29.520Z,15.10
2018-02-24T10:33:29.653Z,13.40
2018-02-24T10:34:29.512Z,12.70
2018-02-24T10:35:29.692Z,13.00
2018-02-24T10:36:29.655Z,13.40
2018-02-24T10:37:29.495Z,13.40
2018-02-24T10:38:29.892Z,13.40
2018-02-24T10:39:29.554Z,13.00
2018-02-24T10:40:29.576Z,12.40
2018-02-24T10:41:29.434Z,12.40
2018-02-24T10:42:29.550Z,12.30
2018-02-24T10:43:29.346Z,12.60
2018-02-24T10:44:29.467Z,12.40
2018-02-24T10:45:29.312Z,12.50
2018-02-24T10:46:29.476Z,12.30
2018-02-24T10:47:29.280Z,12.10
2018-02-24T10:48:29.395Z,12.50
2018-02-24T10:49:29.242Z,12.00
2018-02-24T10:50:29.319Z,11.30
2018-02-24T10:51:29.222Z,12.30
2018-02-24T10:52:29.307Z,11.80
2018-02-24T10:53:29.187Z,11.60
2018-02-24T10:54:29.237Z,11.20
2018-02-24T10:55:29.150Z,11.30
2018-02-24T10:56:29.234Z,11.10
2018-02-24T10:57:29.168Z,11.40
2018-02-24T10:58:29.167Z,11.30
2018-02-24T10:59:29.113Z,11.50
2018-02-24T11:00:29.197Z,11.20
2018-02-24T11:01:29.071Z,11.20
2018-02-24T11:02:29.126Z,11.20
2018-02-24T11:03:29.069Z,11.20
2018-02-24T11:04:29.115Z,11.00
2018-02-24T11:05:29.049Z,10.90
2018-02-24T11:06:29.171Z,11.10
2018-02-24T11:07:29.071Z,11.00
2018-02-24T11:08:29.051Z,12.20
2018-02-24T11:09:29.051Z,11.60
2018-02-24T11:10:29.131Z,11.00
2018-02-24T11:11:28.972Z,11.40
2018-02-24T11:12:29.057Z,12.00
2018-02-24T11:13:29.014Z,12.40
2018-02-24T11:14:29.071Z,11.30
2018-02-24T11:15:28.914Z,11.40
2018-02-24T11:16:29.035Z,11.70
2018-02-24T11:17:28.864Z,12.00
2018-02-24T11:18:29.015Z,11.60
2018-02-24T11:19:28.861Z,12.00
2018-02-24T11:20:29.002Z,11.10
2018-02-24T11:21:28.860Z,12.10
2018-02-24T11:22:28.859Z,16.40
2018-02-24T11:23:28.838Z,12.40
2018-02-24T11:24:28.900Z,11.40
2018-02-24T11:25:28.819Z,12.00
2018-02-24T11:26:28.939Z,11.00
2018-02-24T11:27:28.736Z,11.00
2018-02-24T11:28:28.882Z,10.70
2018-02-24T11:29:28.704Z,10.50
2018-02-24T11:30:28.800Z,10.30
2018-02-24T11:31:28.741Z,11.10
2018-02-24T11:32:28.722Z,11.80
2018-02-24T11:33:28.679Z,11.10
2018-02-24T11:34:28.745Z,11.30
2018-02-24T11:35:28.645Z,12.00
2018-02-24T11:36:28.787Z,12.80
2018-02-24T11:37:28.548Z,11.90
2018-02-24T11:38:28.650Z,12.10
2018-02-24T11:39:28.574Z,11.10
2018-02-24T11:40:28.671Z,11.60
2018-02-24T11:41:28.589Z,11.00
2018-02-24T11:42:28.648Z,11.50
2018-02-24T11:43:28.504Z,11.80
2018-02-24T11:44:28.611Z,14.70
2018-02-24T11:45:28.451Z,15.00
2018-02-24T11:46:28.651Z,18.60
2018-02-24T11:47:28.473Z,16.10
2018-02-24T11:48:28.482Z,13.80
2018-02-24T11:49:28.360Z,13.20
2018-02-24T11:50:28.534Z,12.60
2018-02-24T11:51:28.339Z,14.90
2018-02-24T11:52:28.409Z,12.30
2018-02-24T11:53:28.317Z,13.00
2018-02-24T11:54:28.413Z,20.30
2018-02-24T11:55:28.315Z,15.90
2018-02-24T11:56:28.459Z,12.90
2018-02-24T11:57:28.256Z,13.30
2018-02-24T11:58:28.275Z,12.00
2018-02-24T11:59:28.267Z,18.20
2018-02-24T12:00:28.347Z,12.20
2018-02-24T12:01:28.192Z,18.20
2018-02-24T12:02:28.300Z,12.40
2018-02-24T12:03:28.216Z,11.70
2018-02-24T12:04:28.366Z,11.70
2018-02-24T12:05:28.169Z,10.30
2018-02-24T12:06:28.359Z,9.80
2018-02-24T12:07:28.097Z,9.80
2018-02-24T12:08:30.288Z,13.10
2018-02-24T12:09:28.124Z,11.50
2018-02-24T12:10:28.243Z,11.20
2018-02-24T12:11:28.201Z,10.60
2018-02-24T12:12:28.124Z,10.90
2018-02-24T12:13:28.352Z,11.20
2018-02-24T12:14:28.153Z,12.00
2018-02-24T12:15:27.986Z,12.00
2018-02-24T12:16:28.056Z,11.80
2018-02-24T12:17:27.942Z,11.00
2018-02-24T12:18:28.075Z,10.40
2018-02-24T12:19:27.920Z,11.10
2018-02-24T12:20:28.090Z,10.60
2018-02-24T12:21:27.950Z,9.90
2018-02-24T12:22:27.988Z,10.20
2018-02-24T12:23:27.897Z,10.30
2018-02-24T12:24:28.017Z,10.20
2018-02-24T12:25:27.830Z,9.80
2018-02-24T12:26:28.035Z,9.50
2018-02-24T12:27:27.800Z,9.30
2018-02-24T12:28:27.933Z,10.40
2018-02-24T12:29:27.878Z,10.90
2018-02-24T12:30:27.948Z,10.10
2018-02-24T12:31:27.755Z,10.50
2018-02-24T12:32:27.869Z,13.20
2018-02-24T12:33:27.713Z,12.40
2018-02-24T12:34:27.867Z,9.50
2018-02-24T12:35:27.699Z,9.70
2018-02-24T12:36:27.773Z,9.90
2018-02-24T12:37:27.659Z,9.80
2018-02-24T12:38:27.798Z,9.50
2018-02-24T12:39:27.624Z,9.60
2018-02-24T12:40:27.880Z,9.60
2018-02-24T12:41:27.591Z,8.80
2018-02-24T12:42:27.661Z,9.30
2018-02-24T12:43:27.567Z,9.00
2018-02-24T12:44:27.732Z,9.10
2018-02-24T12:45:27.545Z,9.10
2018-02-24T12:46:27.642Z,9.50
2018-02-24T12:47:27.502Z,8.90
2018-02-24T12:48:27.671Z,9.00
2018-02-24T12:49:27.471Z,8.70
2018-02-24T12:50:27.580Z,8.40
2018-02-24T12:51:27.441Z,9.00
2018-02-24T12:52:27.588Z,8.70
2018-02-24T12:53:27.408Z,8.50
2018-02-24T12:54:27.691Z,9.00
2018-02-24T12:55:27.431Z,9.30
2018-02-24T12:56:27.513Z,9.20